Kalenakliyat 2 — TCBA7 — position and weather

sailwx.info

Track history (hours):
 
Tides and Currents Weather Stations Pressure Air Temp Water Temp Dewpoint Dewpoint Depression Visibility Wind Speed Wind Dir Waves Ship Positions

Kalenakliyat 2

Last reported at 2015-May-20 17:28 UTC. Time now 2015-May-24 11:07 UTC.
Position N 41°17' E 029°31'.

Length 73 m; draft 4.3 m.

Type: Cargo ship. MMSI: 271002023.

Date/timePositionNaut miles runAvg speedWind from/ knotsBaromVisibWave heightAir tempDewpointWater temp
2015-May-20 17:28N 41°17' E 029°31'7 7.5
2015-May-20 16:33N 41°16' E 029°40'204 8.9
2015-May-19 17:32N 42°03' E 034°06'11 9.6
2015-May-19 16:21N 42°04' E 034°21'8 9.7
2015-May-19 15:33N 42°05' E 034°32'10 9.7
2015-May-19 14:33N 42°06' E 034°45'10 9.6
2015-May-19 13:32N 42°06' E 034°58'10 9.8
2015-May-19 12:33N 42°04' E 035°10'65 9.2
2015-May-19 05:29N 41°40' E 036°32'28 9.0
2015-May-19 02:21N 41°31' E 037°08'38 9.0
2015-May-18 22:04N 41°20' E 037°57'24 8.7
2015-May-18 19:19N 41°15' E 038°28'7 9.0
2015-May-18 18:33N 41°13' E 038°37'10 9.1
2015-May-18 17:29N 41°11' E 038°49'8 8.9
2015-May-18 16:33N 41°10' E 039°00'9 9.2
2015-May-18 15:33N 41°08' E 039°12'10 9.5
2015-May-18 14:33N 41°07' E 039°25'  
2015-May-13 20:04N 41°16' E 029°40'4 8.3
2015-May-13 19:33N 41°16' E 029°35'8 8.5
2015-May-13 18:33N 41°15' E 029°23'  
Track history (hours):
 
Tides and Currents Weather Stations Pressure Air Temp Water Temp Dewpoint Dewpoint Depression Visibility Wind Speed Wind Dir Waves Ship Positions

Kalenakliyat 2

Last reported at 2015-May-20 17:28 UTC. Time now 2015-May-24 11:07 UTC.
Position N 41°17' E 029°31'.

Length 73 m; draft 4.3 m.

Type: Cargo ship. MMSI: 271002023.

Date/timePositionNaut miles runAvg speedWind from/ knotsBaromVisibWave heightAir tempDewpointWater temp
2015-May-20 17:28N 41°17' E 029°31'7 7.5
2015-May-20 16:33N 41°16' E 029°40'204 8.9
2015-May-19 17:32N 42°03' E 034°06'11 9.6
2015-May-19 16:21N 42°04' E 034°21'8 9.7
2015-May-19 15:33N 42°05' E 034°32'10 9.7
2015-May-19 14:33N 42°06' E 034°45'10 9.6
2015-May-19 13:32N 42°06' E 034°58'10 9.8
2015-May-19 12:33N 42°04' E 035°10'65 9.2
2015-May-19 05:29N 41°40' E 036°32'28 9.0
2015-May-19 02:21N 41°31' E 037°08'38 9.0
2015-May-18 22:04N 41°20' E 037°57'24 8.7
2015-May-18 19:19N 41°15' E 038°28'7 9.0
2015-May-18 18:33N 41°13' E 038°37'10 9.1
2015-May-18 17:29N 41°11' E 038°49'8 8.9
2015-May-18 16:33N 41°10' E 039°00'9 9.2
2015-May-18 15:33N 41°08' E 039°12'10 9.5
2015-May-18 14:33N 41°07' E 039°25'  
2015-May-13 20:04N 41°16' E 029°40'4 8.3
2015-May-13 19:33N 41°16' E 029°35'8 8.5
2015-May-13 18:33N 41°15' E 029°23'  

Dump ship's entire track history